^^
Datos históricos de la estación: Murcia-Puente Tocinos
Diario Informe para Febrero 11, 2021 Unidades:  Métrico    Ingés   Ambas
Diario Semanal Mensual Anual
  Máxima: Mínima: Promedio:
Temperatura: 6.6 °C 5.4 °C 6.2 °C
Punto de rocio: 4.7 °C 3.9 °C 4.3 °C
Humedad: 91% 84% 88%
Velocidad viento: 6.9km/h 0km/h 4.6km/h
Racha viento: 13km/h - -
Viento- - SO
Presión: 1018.2 hPa 1015.0 hPa -
Precipitación: 0.0 mm    
 
 
Tabla de datos para Febrero 11, 2021
Hora Temperatura Punto de rocio Presión Viento Velocidad viento Racha viento Humedad Intensidad lluvia(por hora) Nubes
00:04 6.5 °C 4.7 °C 1015.1 hPa Sur 3.2 km/h 8 km/h 88% 0.0 mm
00:09 6.5 °C 4.7 °C 1015.1 hPa SSO 4.1 km/h 8 km/h 88% 0.0 mm
00:14 6.5 °C 4.7 °C 1015.0 hPa SSO 4.7 km/h 7.4 km/h 88% 0.0 mm
00:19 6.5 °C 4.6 °C 1015.0 hPa Sur 4.2 km/h 5.8 km/h 88% 0.0 mm
00:24 6.4 °C 4.6 °C 1015.2 hPa Sur 3.9 km/h 8 km/h 88% 0.0 mm
00:29 6.5 °C 4.5 °C 1015.2 hPa Sur 4.4 km/h 7.4 km/h 87.3% 0.0 mm
00:34 6.6 °C 4.6 °C 1015.2 hPa Sur 4.7 km/h 9.3 km/h 87% 0.0 mm
00:39 6.6 °C 4.6 °C 1015.2 hPa SSO 4.9 km/h 9.7 km/h 87% 0.0 mm
00:44 6.6 °C 4.6 °C 1015.1 hPa SO 5 km/h 9.7 km/h 87% 0.0 mm
00:49 6.6 °C 4.6 °C 1015.1 hPa OSO 5 km/h 8 km/h 87% 0.0 mm
00:54 6.5 °C 4.5 °C 1015.2 hPa OSO 5 km/h 8 km/h 87% 0.0 mm
00:59 6.5 °C 4.5 °C 1015.2 hPa OSO 3.5 km/h 3.9 km/h 87% 0.0 mm
01:04 6.4 °C 4.4 °C 1015.2 hPa OSO 2.9 km/h 4.7 km/h 87% 0.0 mm
01:09 6.3 °C 4.4 °C 1015.2 hPa OSO 2.9 km/h 5.8 km/h 87.6% 0.0 mm
01:14 6.3 °C 4.4 °C 1015.2 hPa OSO 2.9 km/h 7.6 km/h 88% 0.0 mm
01:19 6.3 °C 4.4 °C 1015.2 hPa SO 4.1 km/h 10 km/h 88% 0.0 mm
01:24 6.2 °C 4.3 °C 1015.2 hPa SO 4.7 km/h 10 km/h 88% 0.0 mm
01:29 6.2 °C 4.3 °C 1015.2 hPa OSO 5.4 km/h 9.7 km/h 88% 0.0 mm
01:34 6.2 °C 4.3 °C 1015.2 hPa SO 5.8 km/h 8.4 km/h 88% 0.0 mm
01:39 6.2 °C 4.3 °C 1015.2 hPa SO 5 km/h 10 km/h 88% 0.0 mm
01:44 6.2 °C 4.3 °C 1015.2 hPa SO 4.7 km/h 9.7 km/h 88% 0.0 mm
01:49 6.2 °C 4.3 °C 1015.2 hPa SO 5.4 km/h 9.7 km/h 88% 0.0 mm
01:54 6.2 °C 4.3 °C 1015.2 hPa OSO 5.8 km/h 8.4 km/h 88% 0.0 mm
01:59 6.2 °C 4.3 °C 1015.2 hPa OSO 5 km/h 8 km/h 88% 0.0 mm
02:04 6.2 °C 4.3 °C 1015.2 hPa Oeste 4.6 km/h 8 km/h 88% 0.0 mm
02:09 6.1 °C 4.3 °C 1015.4 hPa Oeste 3.5 km/h 6.4 km/h 88% 0.0 mm
02:14 6.1 °C 4.3 °C 1015.4 hPa Oeste 2.9 km/h 5 km/h 88% 0.0 mm
02:19 6.1 °C 4.3 °C 1015.4 hPa Oeste 1.1 km/h 7.4 km/h 88% 0.0 mm
02:24 6.1 °C 4.3 °C 1015.4 hPa Calm   8 km/h 88% 0.0 mm
02:29 6.2 °C 4.3 °C 1015.4 hPa SO 3 km/h 8 km/h 88% 0.0 mm
02:34 6.2 °C 4.3 °C 1015.4 hPa SO 4.7 km/h 8 km/h 88% 0.0 mm
02:39 6.2 °C 4.3 °C 1015.4 hPa SO 3.5 km/h 6.4 km/h 88% 0.0 mm
02:44 6.3 °C 4.4 °C 1015.4 hPa SO 2.9 km/h 7.4 km/h 88% 0.0 mm
02:49 6.3 °C 4.4 °C 1015.4 hPa SSO 3.5 km/h 8 km/h 88% 0.0 mm
02:54 6.4 °C 4.5 °C 1015.6 hPa Sur 3.9 km/h 8 km/h 87.6% 0.0 mm
02:59 6.4 °C 4.4 °C 1015.6 hPa SSE 4.4 km/h 9.3 km/h 87% 0.0 mm
03:04 6.3 °C 4.3 °C 1015.6 hPa SSO 4.7 km/h 9.7 km/h 87% 0.0 mm
03:09 6.2 °C 4.3 °C 1015.6 hPa SO 3.7 km/h 8 km/h 87.7% 0.0 mm
03:14 6.2 °C 4.3 °C 1015.6 hPa SO 3.2 km/h 8 km/h 88% 0.0 mm
03:19 6.2 °C 4.3 °C 1015.6 hPa SO 3.2 km/h 8 km/h 88% 0.0 mm
03:24 6.1 °C 4.3 °C 1015.6 hPa SO 3.2 km/h 5.8 km/h 88.2% 0.0 mm
03:29 6 °C 4.3 °C 1015.6 hPa Oeste 3.6 km/h 7.6 km/h 89% 0.0 mm
03:34 5.9 °C 4.2 °C 1015.6 hPa OSO 3.9 km/h 8 km/h 89% 0.0 mm
03:39 5.8 °C 4.1 °C 1015.6 hPa OSO 3.9 km/h 8 km/h 89% 0.0 mm
03:44 5.8 °C 4.1 °C 1015.6 hPa OSO 3.9 km/h 5.6 km/h 89% 0.0 mm
03:49 5.7 °C 4 °C 1015.6 hPa OSO 2.8 km/h 5.8 km/h 89% 0.0 mm
03:54 5.7 °C 4.1 °C 1015.6 hPa Sur 2.2 km/h 7.4 km/h 89.4% 0.0 mm
03:59 5.8 °C 4.3 °C 1015.6 hPa Sur 3.3 km/h 8 km/h 90% 0.0 mm
04:04 5.8 °C 4.3 °C 1015.6 hPa SO 3.9 km/h 8 km/h 89.9% 0.0 mm
04:09 5.8 °C 4.2 °C 1015.8 hPa SO 4.4 km/h 9.5 km/h 89% 0.0 mm
04:14 5.9 °C 4.2 °C 1015.8 hPa OSO 4.7 km/h 8.4 km/h 88.6% 0.0 mm
04:19 5.9 °C 4.1 °C 1015.8 hPa SO 4.9 km/h 8.7 km/h 88% 0.0 mm
04:24 6 °C 4.1 °C 1015.8 hPa SO 5 km/h 9.3 km/h 87.8% 0.0 mm
04:29 6.1 °C 4.1 °C 1015.8 hPa SO 5 km/h 9.7 km/h 87% 0.0 mm
04:34 6.1 °C 4.1 °C 1015.8 hPa SSO 5 km/h 9.5 km/h 87% 0.0 mm
04:39 6.1 °C 4.1 °C 1015.9 hPa Sur 5.5 km/h 11.9 km/h 87% 0.0 mm
04:44 5.9 °C 4 °C 1015.9 hPa SSE 5.8 km/h 11.3 km/h 87.4% 0.0 mm
04:49 5.8 °C 4 °C 1015.9 hPa Sur 6.5 km/h 11.1 km/h 88% 0.0 mm
04:54 5.7 °C 4 °C 1015.9 hPa Sur 6.9 km/h 10 km/h 88.7% 0.0 mm
04:59 5.6 °C 3.9 °C 1015.8 hPa SE 6.9 km/h 9.7 km/h 89% 0.0 mm
05:04 5.4 °C 3.9 °C 1015.8 hPa Sur 6.9 km/h 9.7 km/h 90% 0.0 mm
05:09 5.5 °C 4 °C 1015.9 hPa SSO 6.2 km/h 9.7 km/h 90.1% 0.0 mm
05:14 5.6 °C 4.2 °C 1015.9 hPa SSO 5.8 km/h 8 km/h 91% 0.0 mm
05:19 5.6 °C 4.3 °C 1015.9 hPa SSO 5.1 km/h 8 km/h 91% 0.0 mm
05:24 5.7 °C 4.3 °C 1016.0 hPa SO 4.7 km/h 8 km/h 91% 0.0 mm
05:29 5.7 °C 4.4 °C 1016.0 hPa SSO 4.7 km/h 8 km/h 91% 0.0 mm
05:34 5.8 °C 4.4 °C 1016.0 hPa SSO 4.7 km/h 8 km/h 91% 0.0 mm
05:39 5.8 °C 4.4 °C 1016.0 hPa SSO 4.7 km/h 8.4 km/h 90.6% 0.0 mm
05:44 5.9 °C 4.4 °C 1016.0 hPa SSO 4.7 km/h 9.5 km/h 90% 0.0 mm
05:49 5.9 °C 4.4 °C 1016.0 hPa SO 4.9 km/h 9.7 km/h 90% 0.0 mm
05:54 5.9 °C 4.4 °C 1016.0 hPa OSO 5 km/h 8 km/h 90% 0.0 mm
05:59 5.9 °C 4.3 °C 1015.9 hPa OSO 3.8 km/h 7.4 km/h 89.3% 0.0 mm
06:04 6 °C 4.3 °C 1015.9 hPa OSO 3.2 km/h 8 km/h 89% 0.0 mm
06:09 6 °C 4.3 °C 1016.0 hPa Sur 3 km/h 5.8 km/h 89% 0.0 mm
06:14 6 °C 4.3 °C 1016.0 hPa SO 2.9 km/h 6.4 km/h 89% 0.0 mm
06:19 6.1 °C 4.4 °C 1016.0 hPa SSO 3.1 km/h 6.4 km/h 89% 0.0 mm
06:24 6.1 °C 4.4 °C 1016.1 hPa SSO 3.2 km/h 6.4 km/h 89% 0.0 mm
06:29 6.1 °C 4.4 °C 1016.1 hPa SO 3.2 km/h 7.4 km/h 89% 0.0 mm
06:34 6.1 °C 4.3 °C 1016.1 hPa SSO 3.2 km/h 8 km/h 88.3% 0.0 mm
06:39 6.1 °C 4.3 °C 1016.2 hPa Sur 3.6 km/h 8.4 km/h 88% 0.0 mm
06:44 6.1 °C 4.3 °C 1016.2 hPa SSO 3.9 km/h 11.1 km/h 88% 0.0 mm
06:49 6.1 °C 4.3 °C 1016.2 hPa SO 5.9 km/h 12.2 km/h 88% 0.0 mm
06:54 6.1 °C 4.2 °C 1016.2 hPa SO 6.9 km/h 12.9 km/h 87.3% 0.0 mm
06:59 6.2 °C 4.2 °C 1016.2 hPa SO 6.2 km/h 8 km/h 87% 0.0 mm
07:04 6.2 °C 4.2 °C 1016.2 hPa SO 5.8 km/h 8 km/h 87% 0.0 mm
07:09 6.2 °C 4.2 °C 1016.2 hPa OSO 4.6 km/h 9.3 km/h 87% 0.0 mm
07:14 6.2 °C 4.2 °C 1016.2 hPa SO 3.9 km/h 9.7 km/h 87% 0.0 mm
07:19 6.1 °C 4.1 °C 1016.2 hPa SO 5.1 km/h 9.7 km/h 87% 0.0 mm
07:24 6.2 °C 4.2 °C 1016.5 hPa OSO 5.8 km/h 8.4 km/h 87% 0.0 mm
07:29 6.1 °C 4.1 °C 1016.5 hPa SO 5.3 km/h 9.5 km/h 87% 0.0 mm
07:34 6.2 °C 4.2 °C 1016.5 hPa SO 5 km/h 11.1 km/h 87% 0.0 mm
07:39 6.2 °C 4.2 °C 1016.6 hPa SSO 6 km/h 11.3 km/h 87% 0.0 mm
07:44 6.2 °C 4.2 °C 1016.6 hPa SO 6.5 km/h 8 km/h 87% 0.0 mm
07:49 6.2 °C 4.2 °C 1016.6 hPa SSO 5.3 km/h 8 km/h 87% 0.0 mm
07:54 6.2 °C 4.2 °C 1016.8 hPa Sur 4.7 km/h 9.3 km/h 87% 0.0 mm
07:59 6.3 °C 4.2 °C 1016.8 hPa Sur 5.4 km/h 9.7 km/h 86.3% 0.0 mm
08:04 6.4 °C 4.2 °C 1016.8 hPa SE 5.8 km/h 9.7 km/h 86% 0.0 mm
08:09 6.4 °C 4.2 °C 1017.0 hPa SE 5.3 km/h 8 km/h 86% 0.0 mm
08:14 6.4 °C 4.2 °C 1017.0 hPa Sur 5 km/h 13 km/h 86% 0.0 mm
08:19 6.4 °C 4.1 °C 1017.0 hPa SSO 5.5 km/h 13 km/h 85.5% 0.0 mm
08:24 6.5 °C 4.1 °C 1017.1 hPa Sur 5.8 km/h 12.9 km/h 85% 0.0 mm
08:29 6.5 °C 4.1 °C 1017.1 hPa Sur 6.2 km/h 10 km/h 84.5% 0.0 mm
08:34 6.6 °C 4.1 °C 1017.1 hPa SSO 6.5 km/h 9.7 km/h 84% 0.0 mm
08:39 6.6 °C 4.1 °C 1017.2 hPa SSO 6 km/h 9.5 km/h 84% 0.0 mm
08:44 6.6 °C 4.1 °C 1017.2 hPa SSO 5.8 km/h 9.7 km/h 84% 0.0 mm
08:49 6.6 °C 4.1 °C 1017.2 hPa Oeste 5 km/h 8 km/h 84% 0.0 mm
08:54 6.6 °C 4.1 °C 1017.4 hPa Oeste 4.7 km/h 9.3 km/h 84% 0.0 mm
08:59 6.6 °C 4.1 °C 1017.4 hPa Oeste 4.7 km/h 9.7 km/h 84% 0.0 mm
09:04 6.6 °C 4.1 °C 1017.4 hPa Oeste 4.7 km/h 9.7 km/h 84% 0.0 mm
09:09 6.5 °C 4.2 °C 1017.7 hPa Oeste 4.9 km/h 8 km/h 85% 0.0 mm
09:14 6.5 °C 4.2 °C 1017.7 hPa Oeste 5 km/h 9.3 km/h 85% 0.0 mm
09:19 6.4 °C 4.1 °C 1017.7 hPa Oeste 4.8 km/h 9.7 km/h 85% 0.0 mm
09:24 6.4 °C 4.1 °C 1017.9 hPa Oeste 4.7 km/h 8 km/h 85% 0.0 mm
09:29 6.4 °C 4.1 °C 1017.9 hPa Oeste 4.1 km/h 8 km/h 85% 0.0 mm
09:34 6.4 °C 4.1 °C 1017.9 hPa ONO 3.9 km/h 9.3 km/h 85% 0.0 mm
09:39 6.4 °C 4 °C 1018.2 hPa Oeste 4.4 km/h 10 km/h 84.8% 0.0 mm
09:44 6.4 °C 3.9 °C 1018.2 hPa Oeste 4.7 km/h 10 km/h 84% 0.0 mm
09:49 6.5 °C 4 °C 1018.2 hPa Oeste 5.8 km/h 9.7 km/h 84% 0.0 mm
09:51 6.5 °C 4 °C 1018.2 hPa Oeste 6.5 km/h 8 km/h 84% 0.0 mm
Murcia-Puente Tocinos, Espa?a
Compliments of Weather Underground - 2 mb

La estación de MeteoMurcia.com, publica sus datos en los siguientes proyectos:

Weather Underground PWS IMURCIAP2 Meteoclimatic www.awekas.at

W3Counter
Web Analytics